createdAt,value
2016-10-18T00:00:47.727Z,0
2016-10-18T00:01:46.079Z,0
2016-10-18T00:02:47.012Z,0
2016-10-18T00:03:46.737Z,0
2016-10-18T00:04:46.948Z,0
2016-10-18T00:05:47.035Z,0
2016-10-18T00:06:50.283Z,0
2016-10-18T00:07:46.512Z,0
2016-10-18T00:08:48.143Z,0
2016-10-18T00:09:46.626Z,0
2016-10-18T00:10:46.705Z,0
2016-10-18T00:11:46.873Z,0
2016-10-18T00:12:48.738Z,0
2016-10-18T00:13:47.184Z,0
2016-10-18T00:14:50.427Z,0
2016-10-18T00:15:47.322Z,0
2016-10-18T00:16:46.326Z,0
2016-10-18T00:17:47.768Z,0
2016-10-18T00:18:48.203Z,0
2016-10-18T00:19:46.528Z,0
2016-10-18T00:20:46.409Z,0
2016-10-18T00:21:46.824Z,0
2016-10-18T00:22:48.193Z,0
2016-10-18T00:23:48.311Z,0
2016-10-18T00:24:47.029Z,0
2016-10-18T00:25:47.719Z,0
2016-10-18T00:26:47.541Z,0
2016-10-18T00:27:46.340Z,0
2016-10-18T00:28:49.064Z,0
2016-10-18T00:29:48.822Z,0
2016-10-18T00:30:48.979Z,0
2016-10-18T00:31:47.326Z,0
2016-10-18T00:32:47.260Z,0
2016-10-18T00:33:46.863Z,0
2016-10-18T00:34:47.512Z,0
2016-10-18T00:35:46.499Z,0
2016-10-18T00:36:46.945Z,0
2016-10-18T00:37:48.464Z,0
2016-10-18T00:38:47.594Z,0
2016-10-18T00:39:48.240Z,0
2016-10-18T00:40:48.684Z,0
2016-10-18T00:41:47.017Z,0
2016-10-18T00:42:47.204Z,0
2016-10-18T00:43:49.388Z,0
2016-10-18T00:44:50.058Z,0
2016-10-18T00:45:48.517Z,0
2016-10-18T00:46:48.065Z,0
2016-10-18T00:47:47.451Z,0
2016-10-18T00:48:49.877Z,0
2016-10-18T00:49:48.847Z,0
2016-10-18T00:50:48.432Z,0
2016-10-18T00:51:48.471Z,0
2016-10-18T00:52:47.845Z,0
2016-10-18T00:53:50.409Z,0
2016-10-18T00:54:47.827Z,0
2016-10-18T00:55:47.781Z,0
2016-10-18T00:56:48.136Z,0
2016-10-18T00:57:48.457Z,0
2016-10-18T00:58:50.437Z,0
2016-10-18T00:59:47.676Z,0
2016-10-18T01:00:48.295Z,0
2016-10-18T01:01:48.183Z,0
2016-10-18T01:02:48.397Z,0
2016-10-18T01:03:48.577Z,0
2016-10-18T01:04:50.525Z,0
2016-10-18T01:05:48.493Z,0
2016-10-18T01:06:50.238Z,0
2016-10-18T01:07:50.410Z,0
2016-10-18T01:08:48.330Z,0
2016-10-18T01:09:47.310Z,0
2016-10-18T01:10:48.199Z,0
2016-10-18T01:11:48.772Z,0
2016-10-18T01:12:48.635Z,0
2016-10-18T01:13:48.642Z,0
2016-10-18T01:14:49.271Z,0
2016-10-18T01:15:48.625Z,0
2016-10-18T01:16:48.623Z,0
2016-10-18T01:17:49.358Z,0
2016-10-18T01:18:48.770Z,0
2016-10-18T01:19:48.823Z,0
2016-10-18T01:20:48.602Z,0
2016-10-18T01:21:48.179Z,0
2016-10-18T01:22:47.880Z,0
2016-10-18T01:23:48.564Z,0
2016-10-18T01:24:49.616Z,0
2016-10-18T01:25:49.362Z,0
2016-10-18T01:26:51.070Z,0
2016-10-18T01:27:52.364Z,0
2016-10-18T01:28:48.753Z,0
2016-10-18T01:29:48.827Z,0
2016-10-18T01:30:48.417Z,0
2016-10-18T01:31:48.974Z,0
2016-10-18T01:32:50.624Z,0
2016-10-18T01:33:48.790Z,0
2016-10-18T01:34:48.985Z,0
2016-10-18T01:35:48.977Z,0
2016-10-18T01:36:48.783Z,0
2016-10-18T01:37:49.067Z,0
2016-10-18T01:38:49.169Z,0
2016-10-18T01:39:49.918Z,0
2016-10-18T01:40:50.364Z,0
2016-10-18T01:41:49.329Z,0
2016-10-18T01:42:48.329Z,0
2016-10-18T01:43:48.918Z,0
2016-10-18T01:44:48.454Z,0
2016-10-18T01:45:50.691Z,0
2016-10-18T01:46:49.227Z,0
2016-10-18T01:47:49.545Z,0
2016-10-18T01:48:48.845Z,0
2016-10-18T01:49:48.592Z,0
2016-10-18T01:50:48.953Z,0
2016-10-18T01:51:50.431Z,0
2016-10-18T01:52:50.561Z,0
2016-10-18T01:53:48.935Z,0
2016-10-18T01:54:52.402Z,0
2016-10-18T01:55:50.299Z,0
2016-10-18T01:56:50.491Z,0
2016-10-18T01:57:49.520Z,0
2016-10-18T01:58:50.893Z,0
2016-10-18T01:59:48.717Z,0
2016-10-18T02:00:49.408Z,0
2016-10-18T02:01:48.611Z,0
2016-10-18T02:02:49.454Z,0
2016-10-18T02:03:48.888Z,0
2016-10-18T02:04:50.269Z,0
2016-10-18T02:05:49.517Z,0
2016-10-18T02:06:50.476Z,0
2016-10-18T02:07:49.232Z,0
2016-10-18T02:08:50.618Z,0
2016-10-18T02:09:50.928Z,0
2016-10-18T02:10:49.249Z,0
2016-10-18T02:11:48.939Z,0
2016-10-18T02:12:49.128Z,0
2016-10-18T02:13:48.847Z,0
2016-10-18T02:14:50.842Z,0
2016-10-18T02:15:49.408Z,0
2016-10-18T02:16:50.668Z,0
2016-10-18T02:17:50.080Z,0
2016-10-18T02:18:50.348Z,0
2016-10-18T02:19:49.588Z,0
2016-10-18T02:20:48.282Z,0
2016-10-18T02:21:48.692Z,0
2016-10-18T02:22:49.272Z,0
2016-10-18T02:23:51.301Z,0
2016-10-18T02:24:48.821Z,0
2016-10-18T02:25:50.552Z,0
2016-10-18T02:26:50.420Z,0
2016-10-18T02:27:49.134Z,0
2016-10-18T02:28:49.397Z,0
2016-10-18T02:29:51.163Z,0
2016-10-18T02:30:51.166Z,0
2016-10-18T02:31:49.385Z,0
2016-10-18T02:32:49.981Z,0
2016-10-18T02:33:49.234Z,0
2016-10-18T02:34:49.210Z,0
2016-10-18T02:35:48.926Z,0
2016-10-18T02:36:51.000Z,0
2016-10-18T02:37:50.736Z,0
2016-10-18T02:38:51.069Z,0
2016-10-18T02:39:51.961Z,0
2016-10-18T02:40:49.953Z,0
2016-10-18T02:41:49.934Z,0
2016-10-18T02:42:50.202Z,0
2016-10-18T02:43:49.072Z,0
2016-10-18T02:44:51.663Z,0
2016-10-18T02:45:50.505Z,0
2016-10-18T02:46:49.461Z,0
2016-10-18T02:47:52.287Z,0
2016-10-18T02:48:51.713Z,0
2016-10-18T02:49:50.359Z,0
2016-10-18T02:50:50.196Z,0
2016-10-18T02:51:49.174Z,0
2016-10-18T02:52:50.243Z,0
2016-10-18T02:53:50.377Z,0
2016-10-18T02:54:50.933Z,0
2016-10-18T02:55:50.965Z,0
2016-10-18T02:56:49.980Z,0
2016-10-18T02:57:51.112Z,0
2016-10-18T02:58:51.736Z,0
2016-10-18T02:59:51.320Z,0
2016-10-18T03:00:50.935Z,0
2016-10-18T03:01:50.806Z,0
2016-10-18T03:02:50.692Z,0
2016-10-18T03:03:49.335Z,0
2016-10-18T03:04:50.881Z,0
2016-10-18T03:05:51.517Z,0
2016-10-18T03:06:51.645Z,0
2016-10-18T03:07:50.829Z,0
2016-10-18T03:08:50.591Z,0
2016-10-18T03:09:51.045Z,0
2016-10-18T03:10:51.390Z,0
2016-10-18T03:11:50.629Z,0
2016-10-18T03:12:51.123Z,0
2016-10-18T03:13:51.814Z,0
2016-10-18T03:14:50.314Z,0
2016-10-18T03:15:51.478Z,0
2016-10-18T03:16:52.261Z,0
2016-10-18T03:17:51.888Z,0
2016-10-18T03:18:51.226Z,0
2016-10-18T03:19:51.144Z,0
2016-10-18T03:20:50.550Z,0
2016-10-18T03:21:52.547Z,0
2016-10-18T03:22:51.680Z,0
2016-10-18T03:23:50.522Z,0
2016-10-18T03:24:50.418Z,0
2016-10-18T03:25:49.369Z,0
2016-10-18T03:26:51.499Z,0
2016-10-18T03:27:50.569Z,0
2016-10-18T03:28:50.200Z,0
2016-10-18T03:29:50.145Z,0
2016-10-18T03:30:50.822Z,0
2016-10-18T03:31:53.161Z,0
2016-10-18T03:32:50.823Z,0
2016-10-18T03:33:50.320Z,0
2016-10-18T03:34:51.139Z,0
2016-10-18T03:35:50.398Z,0
2016-10-18T03:36:52.680Z,0
2016-10-18T03:37:51.299Z,0
2016-10-18T03:38:51.033Z,0
2016-10-18T03:39:50.565Z,0
2016-10-18T03:40:51.494Z,0
2016-10-18T03:41:50.863Z,0
2016-10-18T03:42:50.885Z,0
2016-10-18T03:43:50.702Z,0
2016-10-18T03:44:50.430Z,0
2016-10-18T03:45:50.708Z,0
2016-10-18T03:46:51.012Z,0
2016-10-18T03:47:52.525Z,0
2016-10-18T03:48:51.656Z,0
2016-10-18T03:49:51.951Z,0
2016-10-18T03:50:51.490Z,0
2016-10-18T03:51:52.169Z,0
2016-10-18T03:52:52.479Z,0
2016-10-18T03:53:51.492Z,0
2016-10-18T03:54:52.016Z,0
2016-10-18T03:55:53.269Z,0
2016-10-18T03:56:51.294Z,0
2016-10-18T03:57:51.944Z,0
2016-10-18T03:58:51.216Z,0
2016-10-18T03:59:52.856Z,0
2016-10-18T04:00:51.435Z,0
2016-10-18T04:01:51.100Z,0
2016-10-18T04:02:51.406Z,0
2016-10-18T04:03:50.944Z,0
2016-10-18T04:04:51.470Z,0
2016-10-18T04:05:53.136Z,0
2016-10-18T04:06:51.766Z,0
2016-10-18T04:07:51.392Z,0
2016-10-18T04:08:51.908Z,0
2016-10-18T04:09:52.119Z,0
2016-10-18T04:10:51.854Z,0
2016-10-18T04:11:50.386Z,0
2016-10-18T04:12:50.848Z,0
2016-10-18T04:13:52.745Z,0
2016-10-18T04:14:52.794Z,0
2016-10-18T04:15:52.186Z,0
2016-10-18T04:16:52.629Z,0
2016-10-18T04:17:53.157Z,0
2016-10-18T04:18:51.588Z,0
2016-10-18T04:19:52.813Z,0
2016-10-18T04:20:51.332Z,0
2016-10-18T04:21:51.986Z,0
2016-10-18T04:22:52.864Z,0
2016-10-18T04:23:52.243Z,0
2016-10-18T04:24:51.332Z,0
2016-10-18T04:25:52.251Z,0
2016-10-18T04:26:51.128Z,0
2016-10-18T04:27:52.545Z,0
2016-10-18T04:28:54.367Z,0
2016-10-18T04:29:53.150Z,0
2016-10-18T04:30:52.490Z,0
2016-10-18T04:31:52.160Z,0
2016-10-18T04:32:52.450Z,0
2016-10-18T04:33:52.934Z,0
2016-10-18T04:34:52.706Z,0
2016-10-18T04:35:52.027Z,0
2016-10-18T04:36:52.395Z,0
2016-10-18T04:37:51.247Z,0
2016-10-18T04:38:53.080Z,0
2016-10-18T04:39:52.621Z,0
2016-10-18T04:40:53.480Z,0
2016-10-18T04:41:53.077Z,0
2016-10-18T04:42:51.959Z,0
2016-10-18T04:43:53.156Z,0
2016-10-18T04:44:53.304Z,0
2016-10-18T04:45:52.394Z,0
2016-10-18T04:46:52.701Z,0
2016-10-18T04:47:52.886Z,0
2016-10-18T04:48:53.214Z,0
2016-10-18T04:49:53.014Z,0
2016-10-18T04:50:52.785Z,0
2016-10-18T04:51:53.469Z,0
2016-10-18T04:52:53.470Z,0
2016-10-18T04:53:52.177Z,0
2016-10-18T04:54:53.540Z,0
2016-10-18T04:55:53.798Z,0
2016-10-18T04:56:53.055Z,0
2016-10-18T04:57:52.633Z,0
2016-10-18T04:58:53.754Z,0
2016-10-18T04:59:53.554Z,0
2016-10-18T05:00:53.159Z,0
2016-10-18T05:01:54.005Z,0
2016-10-18T05:02:53.927Z,0
2016-10-18T05:03:53.318Z,0
2016-10-18T05:04:51.975Z,0
2016-10-18T05:05:53.592Z,0
2016-10-18T05:06:53.901Z,0
2016-10-18T05:07:52.737Z,0
2016-10-18T05:08:53.944Z,0
2016-10-18T05:09:53.901Z,0
2016-10-18T05:10:53.064Z,0
2016-10-18T05:11:54.645Z,0
2016-10-18T05:12:52.935Z,0
2016-10-18T05:13:55.717Z,0
2016-10-18T05:14:53.354Z,0
2016-10-18T05:15:53.011Z,0
2016-10-18T05:16:53.069Z,0
2016-10-18T05:17:55.956Z,0
2016-10-18T05:18:53.740Z,0
2016-10-18T05:19:52.032Z,0
2016-10-18T05:20:52.802Z,0
2016-10-18T05:21:55.744Z,0
2016-10-18T05:22:52.991Z,4
2016-10-18T05:23:55.507Z,4
2016-10-18T05:24:52.724Z,0
2016-10-18T05:25:54.031Z,4
2016-10-18T05:26:53.543Z,4
2016-10-18T05:27:53.080Z,8
2016-10-18T05:28:53.505Z,8
2016-10-18T05:29:53.667Z,8
2016-10-18T05:30:54.740Z,8
2016-10-18T05:31:53.620Z,16
2016-10-18T05:32:55.237Z,16
2016-10-18T05:33:54.122Z,16
2016-10-18T05:34:54.613Z,16
2016-10-18T05:35:52.432Z,20
2016-10-18T05:36:53.045Z,24
2016-10-18T05:37:53.100Z,32
2016-10-18T05:38:53.041Z,40
2016-10-18T05:39:52.444Z,44
2016-10-18T05:40:53.504Z,48
2016-10-18T05:41:53.964Z,52
2016-10-18T05:42:52.907Z,64
2016-10-18T05:43:53.393Z,72
2016-10-18T05:44:53.327Z,80
2016-10-18T05:45:53.468Z,84
2016-10-18T05:46:53.299Z,92
2016-10-18T05:47:52.941Z,108
2016-10-18T05:48:52.465Z,124
2016-10-18T05:49:53.690Z,132
2016-10-18T05:50:54.046Z,132
2016-10-18T05:51:54.364Z,144
2016-10-18T05:52:53.585Z,168
2016-10-18T05:53:53.867Z,196
2016-10-18T05:54:53.944Z,204
2016-10-18T05:55:53.855Z,224
2016-10-18T05:56:53.885Z,256
2016-10-18T05:57:53.195Z,280
2016-10-18T05:58:53.845Z,296
2016-10-18T05:59:53.104Z,296
2016-10-18T06:00:55.331Z,304
2016-10-18T06:01:53.618Z,324
2016-10-18T06:02:54.170Z,356
2016-10-18T06:03:53.348Z,396
2016-10-18T06:04:54.101Z,452
2016-10-18T06:05:53.728Z,512
2016-10-18T06:06:53.725Z,560
2016-10-18T06:07:55.340Z,576
2016-10-18T06:08:53.128Z,592
2016-10-18T06:09:53.183Z,620
2016-10-18T06:10:53.754Z,676
2016-10-18T06:11:54.672Z,720
2016-10-18T06:12:53.250Z,752
2016-10-18T06:13:53.752Z,748
2016-10-18T06:14:53.358Z,752
2016-10-18T06:15:53.784Z,724
2016-10-18T06:16:54.168Z,740
2016-10-18T06:17:54.528Z,864
2016-10-18T06:18:55.592Z,1012
2016-10-18T06:19:54.055Z,1184
2016-10-18T06:20:53.614Z,1164
2016-10-18T06:21:53.175Z,1196
2016-10-18T06:22:53.846Z,1164
2016-10-18T06:23:54.617Z,1060
2016-10-18T06:24:54.030Z,1104
2016-10-18T06:25:54.352Z,1096
2016-10-18T06:26:52.801Z,1260
2016-10-18T06:27:54.018Z,1368
2016-10-18T06:28:54.960Z,1372
2016-10-18T06:29:53.508Z,1360
2016-10-18T06:30:56.624Z,1480
2016-10-18T06:31:52.841Z,1508
2016-10-18T06:32:53.555Z,1536
2016-10-18T06:33:55.102Z,1612
2016-10-18T06:34:54.366Z,1580
2016-10-18T06:35:53.347Z,1468
2016-10-18T06:36:53.950Z,1408
2016-10-18T06:37:54.969Z,1420
2016-10-18T06:38:54.399Z,1576
2016-10-18T06:39:54.370Z,1744
2016-10-18T06:40:56.064Z,1928
2016-10-18T06:41:55.485Z,2120
2016-10-18T06:42:53.895Z,2372
2016-10-18T06:43:54.267Z,2628
2016-10-18T06:44:54.030Z,2924
2016-10-18T06:45:55.217Z,3084
2016-10-18T06:46:52.639Z,3344
2016-10-18T06:47:53.795Z,3488
2016-10-18T06:48:52.958Z,3848
2016-10-18T06:49:54.433Z,4404
2016-10-18T06:50:54.741Z,4688
2016-10-18T06:51:56.472Z,4920
2016-10-18T06:52:53.486Z,5216
2016-10-18T06:53:55.218Z,5504
2016-10-18T06:54:54.413Z,6208
2016-10-18T06:55:54.772Z,6932
2016-10-18T06:56:53.819Z,6452
2016-10-18T06:57:54.198Z,5260
2016-10-18T06:58:56.361Z,3868
2016-10-18T06:59:54.349Z,3676
2016-10-18T07:00:55.487Z,4136
2016-10-18T07:01:55.556Z,4280
2016-10-18T07:02:54.084Z,4072
2016-10-18T07:03:54.525Z,3844
2016-10-18T07:04:55.293Z,3652
2016-10-18T07:05:54.733Z,3356
2016-10-18T07:06:55.427Z,3208
2016-10-18T07:07:55.179Z,3356
2016-10-18T07:08:54.634Z,3576
2016-10-18T07:09:55.711Z,3536
2016-10-18T07:10:56.443Z,3588
2016-10-18T07:11:54.568Z,3768
2016-10-18T07:12:55.590Z,3752
2016-10-18T07:13:56.113Z,3908
2016-10-18T07:14:54.635Z,4308
2016-10-18T07:15:54.654Z,5100
2016-10-18T07:16:53.599Z,5524
2016-10-18T07:17:55.469Z,5868
2016-10-18T07:18:55.606Z,5868
2016-10-18T07:19:55.521Z,5336
2016-10-18T07:20:55.572Z,5064
2016-10-18T07:21:55.118Z,5140
2016-10-18T07:22:54.754Z,4724
2016-10-18T07:23:54.190Z,3940
2016-10-18T07:24:56.351Z,3720
2016-10-18T07:25:55.508Z,3692
2016-10-18T07:26:54.140Z,3680
2016-10-18T07:27:55.257Z,3752
2016-10-18T07:28:55.276Z,3632
2016-10-18T07:29:55.299Z,3168
2016-10-18T07:30:55.684Z,2980
2016-10-18T07:31:55.652Z,3084
2016-10-18T07:32:54.419Z,3320
2016-10-18T07:33:54.532Z,3780
2016-10-18T07:34:54.170Z,3900
2016-10-18T07:35:54.314Z,4204
2016-10-18T07:36:55.192Z,4956
2016-10-18T07:37:55.505Z,4880
2016-10-18T07:38:55.303Z,4864
2016-10-18T07:39:55.452Z,4848
2016-10-18T07:40:55.098Z,4824
2016-10-18T07:41:56.262Z,4720
2016-10-18T07:42:55.110Z,4760
2016-10-18T07:43:55.565Z,4596
2016-10-18T07:44:54.675Z,4600
2016-10-18T07:45:55.831Z,4524
2016-10-18T07:46:55.395Z,4576
2016-10-18T07:47:55.239Z,4760
2016-10-18T07:48:55.266Z,4980
2016-10-18T07:49:55.598Z,5376
2016-10-18T07:50:55.259Z,5004
2016-10-18T07:51:56.524Z,5060
2016-10-18T07:52:55.819Z,4620
2016-10-18T07:53:56.062Z,4592
2016-10-18T07:54:55.778Z,5040
2016-10-18T07:55:56.213Z,6032
2016-10-18T07:56:55.343Z,6948
2016-10-18T07:57:56.704Z,6768
2016-10-18T07:58:56.640Z,6472
2016-10-18T07:59:56.948Z,6872
2016-10-18T08:00:55.535Z,7536
2016-10-18T08:01:55.703Z,8100
2016-10-18T08:02:56.023Z,7684
2016-10-18T08:03:55.549Z,7252
2016-10-18T08:04:56.894Z,6956
2016-10-18T08:05:55.991Z,7000
2016-10-18T08:06:56.405Z,5896
2016-10-18T08:07:56.573Z,5180
2016-10-18T08:08:56.292Z,4552
2016-10-18T08:09:56.271Z,4812
2016-10-18T08:10:56.426Z,5124
2016-10-18T08:11:56.407Z,6604
2016-10-18T08:12:55.862Z,7184
2016-10-18T08:13:56.729Z,6980
2016-10-18T08:14:56.879Z,6564
2016-10-18T08:15:57.697Z,7544
2016-10-18T08:16:56.331Z,7996
2016-10-18T08:17:56.564Z,9148
2016-10-18T08:18:56.903Z,7864
2016-10-18T08:19:56.024Z,6768
2016-10-18T08:20:55.567Z,6616
2016-10-18T08:21:56.935Z,6008
2016-10-18T08:22:56.523Z,5976
2016-10-18T08:23:56.639Z,6204
2016-10-18T08:24:56.219Z,6648
2016-10-18T08:25:57.617Z,6372
2016-10-18T08:26:55.662Z,5660
2016-10-18T08:27:55.642Z,6064
2016-10-18T08:28:55.783Z,8156
2016-10-18T08:29:55.845Z,9480
2016-10-18T08:30:56.558Z,9560
2016-10-18T08:31:56.931Z,9092
2016-10-18T08:32:56.204Z,7772
2016-10-18T08:33:57.402Z,7120
2016-10-18T08:34:56.316Z,6372
2016-10-18T08:35:56.088Z,5740
2016-10-18T08:36:56.636Z,6548
2016-10-18T08:37:57.435Z,7300
2016-10-18T08:38:56.835Z,7644
2016-10-18T08:39:56.321Z,8304
2016-10-18T08:40:57.404Z,9824
2016-10-18T08:41:56.256Z,10572
2016-10-18T08:42:56.679Z,9972
2016-10-18T08:43:56.825Z,9212
2016-10-18T08:44:56.485Z,8420
2016-10-18T08:45:55.954Z,8172
2016-10-18T08:46:56.629Z,8084
2016-10-18T08:47:56.636Z,7952
2016-10-18T08:48:56.437Z,7980
2016-10-18T08:49:56.244Z,8472
2016-10-18T08:50:55.789Z,9172
2016-10-18T08:51:56.217Z,9636
2016-10-18T08:52:56.604Z,9768
2016-10-18T08:53:56.367Z,10180
2016-10-18T08:54:56.117Z,10736
2016-10-18T08:55:56.448Z,10900
2016-10-18T08:56:58.041Z,10792
2016-10-18T08:57:56.547Z,11044
2016-10-18T08:58:57.148Z,11060
2016-10-18T08:59:56.697Z,10512
2016-10-18T09:00:57.106Z,9656
2016-10-18T09:01:57.009Z,9024
2016-10-18T09:02:56.996Z,9012
2016-10-18T09:03:56.797Z,9440
2016-10-18T09:04:56.829Z,9888
2016-10-18T09:05:57.031Z,9840
2016-10-18T09:06:57.775Z,9772
2016-10-18T09:07:56.610Z,10324
2016-10-18T09:08:56.215Z,11756
2016-10-18T09:09:57.042Z,13400
2016-10-18T09:10:55.927Z,14612
2016-10-18T09:11:56.839Z,15344
2016-10-18T09:12:56.737Z,15336
2016-10-18T09:13:57.767Z,14140
2016-10-18T09:14:57.524Z,12828
2016-10-18T09:15:56.897Z,12584
2016-10-18T09:16:56.417Z,13224
2016-10-18T09:17:56.865Z,14040
2016-10-18T09:18:57.202Z,14292
2016-10-18T09:19:57.475Z,14344
2016-10-18T09:20:57.552Z,14484
2016-10-18T09:21:56.869Z,14500
2016-10-18T09:22:58.175Z,14360
2016-10-18T09:23:56.829Z,13856
2016-10-18T09:24:57.597Z,13008
2016-10-18T09:25:57.946Z,12344
2016-10-18T09:26:56.971Z,12576
2016-10-18T09:27:58.054Z,13720
2016-10-18T09:28:58.305Z,14428
2016-10-18T09:29:57.633Z,14616
2016-10-18T09:30:57.882Z,14536
2016-10-18T09:31:57.313Z,14480
2016-10-18T09:32:59.446Z,14828
2016-10-18T09:33:58.134Z,15480
2016-10-18T09:34:58.204Z,15820
2016-10-18T09:35:57.300Z,16704
2016-10-18T09:36:58.303Z,17952
2016-10-18T09:37:58.590Z,18592
2016-10-18T09:38:58.328Z,18720
2016-10-18T09:39:58.529Z,18464
2016-10-18T09:40:57.666Z,17312
2016-10-18T09:41:59.180Z,16308
2016-10-18T09:42:57.141Z,15648
2016-10-18T09:43:57.126Z,15808
2016-10-18T09:44:56.985Z,16344
2016-10-18T09:45:57.603Z,17280
2016-10-18T09:46:58.017Z,19232
2016-10-18T09:47:58.019Z,20352
2016-10-18T09:49:00.721Z,20704
2016-10-18T09:49:58.412Z,20096
2016-10-18T09:50:57.466Z,19584
2016-10-18T09:51:57.661Z,18304
2016-10-18T09:52:57.575Z,17120
2016-10-18T09:53:58.023Z,16356
2016-10-18T09:54:57.822Z,14424
2016-10-18T09:55:58.376Z,13944
2016-10-18T09:56:58.622Z,13700
2016-10-18T09:57:59.043Z,14124
2016-10-18T09:58:57.915Z,14720
2016-10-18T09:59:57.228Z,15212
2016-10-18T10:00:58.988Z,15740
2016-10-18T10:01:58.857Z,15912
2016-10-18T10:02:57.569Z,15312
2016-10-18T10:03:58.037Z,14508
2016-10-18T10:04:58.237Z,13180
2016-10-18T10:05:58.387Z,12308
2016-10-18T10:06:59.099Z,10960
2016-10-18T10:07:57.807Z,10756
2016-10-18T10:08:58.132Z,9672
2016-10-18T10:09:58.388Z,9776
2016-10-18T10:10:59.247Z,10908
2016-10-18T10:11:58.244Z,10360
2016-10-18T10:12:58.511Z,11036
2016-10-18T10:13:58.347Z,10860
2016-10-18T10:14:58.428Z,10584
2016-10-18T10:15:59.183Z,9260
2016-10-18T10:16:58.645Z,9860
2016-10-18T10:17:59.345Z,10472
2016-10-18T10:18:59.535Z,10884
2016-10-18T10:19:58.341Z,10912
2016-10-18T10:20:58.377Z,10872
2016-10-18T10:21:59.130Z,10432
2016-10-18T10:22:58.621Z,9332
2016-10-18T10:23:59.372Z,8852
2016-10-18T10:24:58.538Z,10576
2016-10-18T10:25:58.791Z,9656
2016-10-18T10:26:58.693Z,9288
2016-10-18T10:27:59.456Z,10408
2016-10-18T10:28:58.596Z,11304
2016-10-18T10:29:58.698Z,10288
2016-10-18T10:30:58.130Z,10624
2016-10-18T10:31:58.274Z,11708
2016-10-18T10:32:58.234Z,13576
2016-10-18T10:33:58.137Z,14632
2016-10-18T10:34:59.367Z,15548
2016-10-18T10:35:58.414Z,15964
2016-10-18T10:36:59.470Z,17088
2016-10-18T10:37:59.843Z,17248
2016-10-18T10:38:58.559Z,17152
2016-10-18T10:39:59.555Z,16832
2016-10-18T10:41:00.552Z,15300
2016-10-18T10:41:58.445Z,14416
2016-10-18T10:43:00.433Z,14512
2016-10-18T10:43:58.899Z,13684
2016-10-18T10:45:00.719Z,15980
2016-10-18T10:45:58.905Z,14972
2016-10-18T10:47:01.251Z,12984
2016-10-18T10:47:59.114Z,12608
2016-10-18T10:49:01.252Z,9912
2016-10-18T10:49:59.375Z,8996
2016-10-18T10:51:00.019Z,11544
2016-10-18T10:51:59.159Z,9540
2016-10-18T10:52:59.672Z,9780
2016-10-18T10:54:01.083Z,9924
2016-10-18T10:55:00.487Z,9660
2016-10-18T10:55:58.670Z,9980
2016-10-18T10:56:59.307Z,10172
2016-10-18T10:57:58.954Z,10136
2016-10-18T10:58:59.323Z,9308
2016-10-18T10:59:59.632Z,9272
2016-10-18T11:01:00.430Z,9852
2016-10-18T11:01:58.826Z,9892
2016-10-18T11:02:59.259Z,9744
2016-10-18T11:03:58.802Z,10640
2016-10-18T11:05:00.958Z,11540
2016-10-18T11:06:00.454Z,12148
2016-10-18T11:06:58.946Z,12804
2016-10-18T11:07:59.437Z,13952
2016-10-18T11:08:58.817Z,15264
2016-10-18T11:09:59.303Z,14856
2016-10-18T11:11:00.771Z,13836
2016-10-18T11:12:00.904Z,14620
2016-10-18T11:12:59.245Z,17248
2016-10-18T11:14:00.519Z,17888
2016-10-18T11:14:59.730Z,16448
2016-10-18T11:16:00.616Z,16928
2016-10-18T11:17:00.207Z,19712
2016-10-18T11:17:59.802Z,21184
2016-10-18T11:18:59.825Z,24160
2016-10-18T11:20:00.773Z,24896
2016-10-18T11:21:00.460Z,22304
2016-10-18T11:21:59.546Z,19424
2016-10-18T11:22:58.920Z,18784
2016-10-18T11:24:00.916Z,20224
2016-10-18T11:25:00.477Z,20064
2016-10-18T11:26:00.384Z,17248
2016-10-18T11:26:59.778Z,15096
2016-10-18T11:28:01.795Z,14076
2016-10-18T11:28:59.144Z,14128
2016-10-18T11:30:00.266Z,14580
2016-10-18T11:30:59.586Z,14844
2016-10-18T11:31:58.863Z,16572
2016-10-18T11:33:00.410Z,18688
2016-10-18T11:33:59.887Z,18656
2016-10-18T11:35:00.899Z,15968
2016-10-18T11:36:01.130Z,14932
2016-10-18T11:36:59.013Z,13348
2016-10-18T11:38:00.928Z,13292
2016-10-18T11:38:59.735Z,13392
2016-10-18T11:40:00.496Z,13580
2016-10-18T11:41:02.756Z,13244
2016-10-18T11:42:00.435Z,12360
2016-10-18T11:43:00.442Z,11000
2016-10-18T11:43:59.467Z,10132
2016-10-18T11:45:00.469Z,9808
2016-10-18T11:46:00.301Z,10308
2016-10-18T11:46:59.474Z,10416
2016-10-18T11:48:00.986Z,10000
2016-10-18T11:49:00.379Z,9952
2016-10-18T11:49:59.661Z,11480
2016-10-18T11:50:59.437Z,13384
2016-10-18T11:51:59.511Z,13608
2016-10-18T11:53:00.405Z,13268
2016-10-18T11:53:59.583Z,12248
2016-10-18T11:55:00.575Z,10664
2016-10-18T11:56:00.601Z,12808
2016-10-18T11:57:00.607Z,13832
2016-10-18T11:58:00.837Z,14856
2016-10-18T11:59:02.178Z,15568
2016-10-18T12:00:00.105Z,17216
2016-10-18T12:01:00.523Z,16260
2016-10-18T12:01:59.815Z,14944
2016-10-18T12:03:00.603Z,14208
2016-10-18T12:03:59.839Z,13400
2016-10-18T12:05:00.692Z,12848
2016-10-18T12:06:00.336Z,12316
2016-10-18T12:07:00.677Z,14364
2016-10-18T12:08:00.899Z,14472
2016-10-18T12:09:00.679Z,13004
2016-10-18T12:10:01.169Z,13744
2016-10-18T12:11:00.675Z,16256
2016-10-18T12:12:00.217Z,15900
2016-10-18T12:13:00.367Z,16544
2016-10-18T12:14:01.230Z,16864
2016-10-18T12:14:59.860Z,17312
2016-10-18T12:16:00.781Z,17920
2016-10-18T12:17:00.639Z,18592
2016-10-18T12:18:00.623Z,18720
2016-10-18T12:19:01.637Z,15712
2016-10-18T12:20:01.022Z,14332
2016-10-18T12:21:00.311Z,12884
2016-10-18T12:22:02.194Z,13324
2016-10-18T12:23:00.561Z,12980
2016-10-18T12:24:00.761Z,14416
2016-10-18T12:25:00.174Z,17664
2016-10-18T12:26:00.801Z,17632
2016-10-18T12:27:01.739Z,14128
2016-10-18T12:28:01.486Z,11536
2016-10-18T12:29:00.502Z,10352
2016-10-18T12:30:01.451Z,9968
2016-10-18T12:31:00.484Z,9984
2016-10-18T12:32:01.275Z,10592
2016-10-18T12:33:01.082Z,11844
2016-10-18T12:34:00.718Z,14516
2016-10-18T12:35:01.782Z,14508
2016-10-18T12:36:01.526Z,16736
2016-10-18T12:37:01.661Z,14568
2016-10-18T12:38:01.136Z,14428
2016-10-18T12:39:02.754Z,14136
2016-10-18T12:40:03.167Z,12940
2016-10-18T12:41:01.820Z,11592
2016-10-18T12:42:02.319Z,10468
2016-10-18T12:43:01.117Z,9528
2016-10-18T12:44:01.642Z,9412
2016-10-18T12:45:00.925Z,9644
2016-10-18T12:46:02.940Z,9112
2016-10-18T12:47:01.897Z,7936
2016-10-18T12:48:01.187Z,6864
2016-10-18T12:49:01.289Z,6116
2016-10-18T12:50:03.172Z,5848
2016-10-18T12:51:01.202Z,7864
2016-10-18T12:52:02.062Z,10400
2016-10-18T12:53:00.802Z,15432
2016-10-18T12:54:01.728Z,18560
2016-10-18T12:55:01.748Z,16640
2016-10-18T12:56:03.261Z,14596
2016-10-18T12:57:02.681Z,13168
2016-10-18T12:58:01.395Z,13464
2016-10-18T12:59:01.527Z,12084
2016-10-18T13:00:01.913Z,12416
2016-10-18T13:01:01.478Z,14308
2016-10-18T13:02:01.927Z,14252
2016-10-18T13:03:01.342Z,14168
2016-10-18T13:04:01.673Z,13640
2016-10-18T13:05:00.996Z,12788
2016-10-18T13:06:02.229Z,11808
2016-10-18T13:07:03.618Z,11180
2016-10-18T13:08:01.609Z,10924
2016-10-18T13:09:01.398Z,10780
2016-10-18T13:10:02.636Z,10968
2016-10-18T13:11:01.939Z,10920
2016-10-18T13:12:02.158Z,10952
2016-10-18T13:13:01.805Z,11028
2016-10-18T13:14:02.804Z,11004
2016-10-18T13:15:02.696Z,11036
2016-10-18T13:16:02.762Z,11156
2016-10-18T13:17:02.527Z,11096
2016-10-18T13:18:02.559Z,11124
2016-10-18T13:19:02.411Z,11008
2016-10-18T13:20:03.018Z,10728
2016-10-18T13:21:03.508Z,10420
2016-10-18T13:22:02.240Z,10264
2016-10-18T13:23:02.452Z,10000
2016-10-18T13:24:02.681Z,9668
2016-10-18T13:25:02.812Z,9440
2016-10-18T13:26:03.752Z,9268
2016-10-18T13:27:02.809Z,9100
2016-10-18T13:28:01.818Z,8980
2016-10-18T13:29:03.676Z,8968
2016-10-18T13:30:02.786Z,9136
2016-10-18T13:31:03.280Z,9416
2016-10-18T13:32:02.186Z,9764
2016-10-18T13:33:03.380Z,10108
2016-10-18T13:34:03.425Z,10344
2016-10-18T13:35:02.296Z,10544
2016-10-18T13:36:02.921Z,10768
2016-10-18T13:37:03.383Z,11068
2016-10-18T13:38:02.864Z,12104
2016-10-18T13:39:03.449Z,12596
2016-10-18T13:40:03.531Z,13548
2016-10-18T13:41:03.022Z,14112
2016-10-18T13:42:03.877Z,14840
2016-10-18T13:43:03.097Z,15312
2016-10-18T13:44:03.924Z,15624
2016-10-18T13:45:03.042Z,15652
2016-10-18T13:46:03.255Z,15448